Time;durP1;ratioP1;P1;durP2;ratioP2;P2;SDS_P1;SDS_P2;PMS_P1;PMS_P2;Temp;Humidity;BMP_temperature;BMP_pressure;BME280_temperature;BME280_humidity;BME280_pressure;Samples;Min_cycle;Max_cycle;Signal;HPM_P1;HPM_P2
2021/10/28 00:13:00;;;;;;;106.50;54.00;;;;;;;2.81;81.63;100015.72;4217414;83;21499;-81
2021/10/28 00:19:00;;;;;;;103.35;52.62;;;;;;;2.64;81.16;100012.25;4260234;82;21007;-82
2021/10/28 00:25:03;;;;;;;131.90;62.40;;;;;;;2.59;81.52;100016.93;4261637;81;21039;-82
2021/10/28 00:31:06;;;;;;;125.45;59.03;;;;;;;2.44;81.89;100022.62;4222459;83;21082;-81
2021/10/28 00:37:11;;;;;;;123.22;59.33;;;;;;;2.40;81.56;100022.94;4172906;84;21633;-81
2021/10/28 00:43:12;;;;;;;120.17;55.85;;;;;;;2.32;82.64;100025.78;4222590;83;21545;-81
2021/10/28 00:49:14;;;;;;;118.82;57.90;;;;;;;2.30;82.51;100019.86;4222137;83;22214;-82
2021/10/28 00:55:16;;;;;;;115.80;54.90;;;;;;;2.28;82.61;100023.97;4146321;85;21059;-81
2021/10/28 01:01:18;;;;;;;106.43;52.10;;;;;;;2.24;82.81;100025.09;4266860;82;21017;-82
2021/10/28 01:07:19;;;;;;;101.12;51.42;;;;;;;2.15;82.69;100026.06;4260667;82;21116;-82
2021/10/28 01:13:24;;;;;;;108.57;53.00;;;;;;;2.07;82.93;100028.89;4213180;83;21031;-81
2021/10/28 01:19:25;;;;;;;115.12;53.78;;;;;;;2.07;83.21;100027.54;4263125;81;21049;-81
2021/10/28 01:25:28;;;;;;;83.00;45.00;;;;;;;2.10;83.37;100031.57;4267401;82;21666;-82
2021/10/28 01:31:33;;;;;;;93.67;46.50;;;;;;;2.09;83.29;100026.70;4262856;81;21083;-81
2021/10/28 01:37:36;;;;;;;87.78;44.05;;;;;;;2.14;84.05;100025.81;4262282;82;21090;-81
2021/10/28 01:43:37;;;;;;;72.20;36.17;;;;;;;2.11;83.84;100023.70;4273286;82;20983;-81
2021/10/28 01:49:38;;;;;;;95.28;41.60;;;;;;;2.23;84.69;100028.09;4276357;81;22020;-81
2021/10/28 01:55:40;;;;;;;82.37;40.45;;;;;;;2.18;83.49;100008.72;4224109;83;21850;-81
2021/10/28 02:01:41;;;;;;;88.55;42.70;;;;;;;2.15;84.01;100013.37;4217884;83;21061;-81
2021/10/28 02:07:44;;;;;;;70.08;37.30;;;;;;;2.09;83.58;100001.58;4211230;83;20986;-81
2021/10/28 02:13:45;;;;;;;82.33;41.10;;;;;;;2.07;84.13;100004.58;4220385;83;21034;-81
2021/10/28 02:19:48;;;;;;;73.17;37.35;;;;;;;1.96;83.64;100003.70;4210518;83;21490;-81
2021/10/28 02:25:50;;;;;;;69.95;35.60;;;;;;;1.88;84.52;99998.97;4230790;83;21040;-81
2021/10/28 02:31:51;;;;;;;70.47;36.55;;;;;;;2.09;85.19;100004.28;4218822;83;21057;-81
2021/10/28 02:37:53;;;;;;;83.82;43.55;;;;;;;2.02;84.45;100007.92;4205105;83;21053;-81
2021/10/28 02:43:54;;;;;;;78.05;37.63;;;;;;;1.97;84.14;100003.41;4214171;83;21030;-81
2021/10/28 02:49:56;;;;;;;95.32;46.15;;;;;;;1.86;84.38;100007.36;4226376;83;21023;-80
2021/10/28 02:55:57;;;;;;;79.30;38.15;;;;;;;1.81;84.28;100010.13;4261417;82;21132;-82
2021/10/28 03:01:59;;;;;;;76.67;36.73;;;;;;;1.72;84.47;100016.48;4265972;81;20983;-82
2021/10/28 03:08:01;;;;;;;72.87;36.42;;;;;;;1.70;84.85;100016.77;4263095;82;21022;-81
2021/10/28 03:14:03;;;;;;;77.47;40.23;;;;;;;1.79;84.71;100015.55;4262692;82;21042;-82
2021/10/28 03:26:07;;;;;;;68.05;33.13;;;;;;;1.66;84.65;100027.09;4306950;81;21560;-81
2021/10/28 03:32:08;;;;;;;60.45;31.25;;;;;;;1.60;84.23;100019.06;4314445;81;21079;-82
2021/10/28 03:38:35;;;;;;;60.15;30.00;;;;;;;1.57;84.46;100023.70;4313357;81;21564;-81
2021/10/28 04:34:23;;;;;;;54.93;27.95;;;;;;;1.59;85.04;100058.49;4345275;80;21493;-82
2021/10/28 04:40:25;;;;;;;70.37;38.60;;;;;;;1.49;84.64;100071.56;4345854;80;21753;-81
2021/10/28 04:46:30;;;;;;;53.92;29.25;;;;;;;1.43;85.04;100064.64;4338825;80;20987;-84
2021/10/28 04:52:37;;;;;;;73.15;37.45;;;;;;;1.41;85.13;100068.70;4334906;80;21015;-81
2021/10/28 04:58:38;;;;;;;45.65;26.37;;;;;;;1.43;84.98;100064.64;4313511;81;21619;-81
2021/10/28 05:04:40;;;;;;;61.28;31.02;;;;;;;1.40;85.57;100061.70;4275631;81;20993;-81
2021/10/28 05:10:43;;;;;;;56.42;29.07;;;;;;;1.47;85.13;100062.17;4315610;81;21020;-82
2021/10/28 05:16:44;;;;;;;64.40;31.05;;;;;;;1.44;85.54;100074.89;4307859;81;21020;-81
2021/10/28 05:22:45;;;;;;;60.83;35.35;;;;;;;1.54;85.56;100074.74;4304482;81;21012;-82
2021/10/28 05:28:47;;;;;;;62.62;33.23;;;;;;;1.45;85.30;100071.91;4314968;81;21005;-83
2021/10/28 05:34:49;;;;;;;63.85;33.60;;;;;;;1.31;84.89;100068.84;4311208;81;21048;-82
2021/10/28 05:40:50;;;;;;;62.10;31.48;;;;;;;1.21;85.24;100071.11;4308508;81;20981;-82
2021/10/28 05:46:51;;;;;;;65.95;33.80;;;;;;;1.20;85.65;100078.95;4309663;81;21008;-81
2021/10/28 05:52:54;;;;;;;54.08;28.32;;;;;;;1.34;86.22;100068.26;4317393;80;21084;-82
2021/10/28 05:58:55;;;;;;;66.10;36.83;;;;;;;1.60;86.04;100075.74;4358516;80;21020;-83
2021/10/28 06:04:57;;;;;;;86.97;44.15;;;;;;;1.54;85.43;100075.56;4323686;80;21087;-83
2021/10/28 06:10:58;;;;;;;79.15;41.00;;;;;;;1.42;85.54;100083.81;4347247;80;21002;-82
2021/10/28 06:17:12;;;;;;;72.10;36.05;;;;;;;1.38;85.95;100070.09;4361764;80;21536;-82
2021/10/28 06:23:12;;;;;;;73.47;34.63;;;;;;;1.29;85.78;100085.84;4360852;80;21067;-82
2021/10/28 06:29:14;;;;;;;90.95;42.50;;;;;;;1.31;86.49;100100.67;4352512;80;21080;-82
2021/10/28 06:35:15;;;;;;;86.10;43.33;;;;;;;1.48;86.87;100093.45;4352651;80;21016;-82
2021/10/28 06:41:20;;;;;;;81.25;41.05;;;;;;;1.57;86.92;100089.01;4353246;80;20957;-83
2021/10/28 06:47:22;;;;;;;83.67;42.90;;;;;;;1.75;87.74;100110.38;4348945;80;21508;-83
2021/10/28 06:53:26;;;;;;;79.77;43.25;;;;;;;2.00;87.69;100101.39;4359063;80;21033;-83
2021/10/28 07:05:48;;;;;;;89.22;45.52;;;;;;;2.59;88.86;100102.08;4361151;80;21181;-82
2021/10/28 07:12:06;;;;;;;88.12;46.10;;;;;;;3.16;88.60;100109.73;4370029;80;21079;-83
2021/10/28 07:24:37;;;;;;;75.20;41.37;;;;;;;4.52;88.17;100108.94;4381642;80;20992;-82
2021/10/28 07:30:41;;;;;;;60.88;35.52;;;;;;;5.20;87.83;100097.70;4379821;79;21051;-83
2021/10/28 08:33:19;;;;;;;47.53;27.62;;;;;;;11.60;82.27;100045.20;4169323;82;5298396;-82
2021/10/28 08:39:24;;;;;;;51.85;28.07;;;;;;;12.44;81.00;100047.08;4292722;82;21067;-83
2021/10/28 08:45:32;;;;;;;47.75;28.42;;;;;;;13.22;80.01;100037.78;4270133;82;21020;-84
2021/10/28 08:51:45;;;;;;;39.23;25.97;;;;;;;14.05;79.69;100036.70;4274491;82;21600;-84
2021/10/28 08:58:28;;;;;;;38.08;25.30;;;;;;;14.22;78.72;100020.98;4278230;82;21064;-83
2021/10/28 10:01:46;;;;;;;25.77;18.45;;;;;;;19.15;67.41;99988.05;4277181;82;21075;-84
2021/10/28 10:07:55;;;;;;;25.50;17.12;;;;;;;19.24;65.97;99983.61;4259813;82;21028;-83
2021/10/28 10:13:58;;;;;;;25.35;17.17;;;;;;;19.37;65.18;99974.21;4264702;82;20954;-84
2021/10/28 10:20:02;;;;;;;22.85;16.23;;;;;;;19.92;63.65;99965.13;4280147;82;21047;-84
2021/10/28 11:22:03;;;;;;;11.15;7.10;;;;;;;18.16;54.52;99925.44;4571687;75;20986;-83
2021/10/28 12:27:46;;;;;;;10.40;6.53;;;;;;;16.45;50.72;99860.87;4192858;84;21100;-83
2021/10/28 12:44:58;;;;;;;15.75;8.55;;;;;;;16.36;49.34;99835.56;4089831;86;21573;-83
2021/10/28 13:35:43;;;;;;;17.60;10.15;;;;;;;16.22;51.78;99816.21;4111207;85;22228;-85
2021/10/28 13:54:18;;;;;;;20.85;10.78;;;;;;;15.88;51.97;99802.54;4125487;85;21031;-84
2021/10/28 14:32:05;;;;;;;21.52;10.28;;;;;;;15.18;53.09;99798.28;4006790;86;21600;-83
2021/10/28 15:35:12;;;;;;;32.83;11.97;;;;;;;12.88;58.26;99798.28;4114935;85;21092;-83
2021/10/28 16:00:20;;;;;;;29.57;16.10;;;;;;;11.46;60.89;99792.63;4125368;85;21054;-83
2021/10/28 16:25:14;;;;;;;47.43;22.50;;;;;;;10.21;63.42;99791.55;4166076;84;21590;-84
2021/10/28 16:31:16;;;;;;;42.15;21.75;;;;;;;9.89;64.08;99791.84;4124988;85;21089;-82
2021/10/28 16:37:18;;;;;;;51.18;24.90;;;;;;;9.66;64.62;99783.45;3984405;88;21057;-84
2021/10/28 16:43:21;;;;;;;52.20;30.27;;;;;;;9.44;65.21;99788.88;4087246;85;21026;-83
2021/10/28 16:49:23;;;;;;;50.33;28.90;;;;;;;9.25;65.76;99781.92;4106724;85;21054;-85
2021/10/28 16:55:25;;;;;;;49.08;27.70;;;;;;;9.07;66.40;99781.95;4106316;85;21074;-84
2021/10/28 17:01:27;;;;;;;53.85;31.20;;;;;;;9.00;67.08;99782.33;4057741;86;21148;-84
2021/10/28 17:07:28;;;;;;;47.67;27.93;;;;;;;8.91;67.26;99785.17;4076794;86;21907;-83
2021/10/28 17:13:30;;;;;;;48.23;28.30;;;;;;;8.83;67.86;99783.95;4074680;86;21181;-83
2021/10/28 17:19:31;;;;;;;44.27;23.73;;;;;;;8.61;67.89;99777.06;4017265;88;21123;-83
2021/10/28 17:25:39;;;;;;;59.58;32.58;;;;;;;8.42;68.52;99778.20;4090869;85;21518;-82
2021/10/28 17:31:38;;;;;;;58.95;31.82;;;;;;;8.35;68.82;99777.19;3971199;86;21075;-83
2021/10/28 17:37:40;;;;;;;52.85;27.95;;;;;;;8.13;68.86;99784.41;4127749;84;21674;-82
2021/10/28 17:43:44;;;;;;;57.03;28.27;;;;;;;7.88;69.58;99786.28;4176761;84;21054;-83
2021/10/28 17:49:46;;;;;;;54.70;29.18;;;;;;;7.66;69.80;99782.59;4179689;84;21069;-83
2021/10/28 17:55:47;;;;;;;61.30;31.30;;;;;;;7.49;70.48;99790.39;4179716;84;21110;-83
2021/10/28 18:01:49;;;;;;;49.70;28.07;;;;;;;7.38;70.75;99787.04;4179149;84;21569;-83
2021/10/28 18:07:50;;;;;;;58.08;27.20;;;;;;;7.22;71.15;99782.78;4177079;84;21005;-83
2021/10/28 18:13:56;;;;;;;55.73;29.77;;;;;;;7.17;71.82;99780.84;4180124;84;21097;-84
2021/10/28 18:19:57;;;;;;;54.88;28.47;;;;;;;7.08;71.75;99778.17;4175664;84;21068;-83
2021/10/28 18:25:58;;;;;;;62.17;30.57;;;;;;;6.90;71.84;99778.64;4184556;82;21567;-83
2021/10/28 18:32:00;;;;;;;61.65;32.80;;;;;;;6.72;72.50;99770.38;4099932;86;21082;-84
2021/10/28 18:38:02;;;;;;;67.35;38.20;;;;;;;6.64;72.61;99759.77;4110494;85;21057;-83
2021/10/28 18:44:04;;;;;;;62.08;33.08;;;;;;;6.49;72.91;99758.19;4116345;85;21038;-83
2021/10/28 18:50:06;;;;;;;71.67;38.75;;;;;;;6.39;73.42;99747.93;4109494;85;21112;-83
2021/10/28 18:56:08;;;;;;;62.33;33.25;;;;;;;6.26;73.53;99747.59;4121817;85;21138;-83
2021/10/28 19:02:10;;;;;;;65.80;34.83;;;;;;;6.31;74.17;99741.20;4119631;85;21045;-84
2021/10/28 19:08:13;;;;;;;86.28;46.68;;;;;;;6.27;74.39;99736.97;4123498;85;21057;-83
2021/10/28 19:14:14;;;;;;;100.27;54.60;;;;;;;6.18;74.24;99740.86;4048157;87;21050;-83
2021/10/28 19:20:16;;;;;;;105.65;57.30;;;;;;;6.07;74.59;99740.44;4062454;87;21071;-83
2021/10/28 19:26:18;;;;;;;89.47;46.05;;;;;;;5.86;74.66;99730.59;4126495;85;21031;-83
2021/10/28 19:32:22;;;;;;;77.37;40.70;;;;;;;5.68;75.17;99732.58;4051330;86;21557;-84
2021/10/28 19:38:52;;;;;;;85.67;46.83;;;;;;;5.58;75.68;99727.48;4157657;84;21038;-83
2021/10/28 19:51:07;;;;;;;137.52;69.82;;;;;;;5.30;75.61;99728.19;4178296;84;21656;-82
2021/10/28 19:57:14;;;;;;;94.37;49.45;;;;;;;5.22;76.01;99723.56;4181323;84;21627;-82
2021/10/28 20:21:55;;;;;;;123.90;63.92;;;;;;;5.01;76.73;99719.94;4176410;84;21179;-82
2021/10/28 20:28:02;;;;;;;112.32;56.73;;;;;;;4.87;76.95;99717.37;4177749;84;21057;-82
2021/10/28 20:40:10;;;;;;;113.00;58.90;;;;;;;4.81;77.76;99724.08;4133874;84;21195;-82
2021/10/28 20:46:20;;;;;;;104.17;51.88;;;;;;;4.68;77.35;99725.05;4176269;84;21151;-82
2021/10/28 20:52:15;;;;;;;104.83;55.73;;;;;;;4.66;78.17;99729.44;4175771;84;21093;-81
2021/10/28 20:58:18;;;;;;;123.47;65.72;;;;;;;4.63;78.20;99726.01;4177413;84;21072;-82
2021/10/28 21:04:20;;;;;;;124.18;66.22;;;;;;;4.49;78.04;99725.36;4177064;84;21037;-82
2021/10/28 21:10:26;;;;;;;135.15;69.67;;;;;;;4.51;78.47;99728.53;4185196;81;22953;-82
2021/10/28 21:16:27;;;;;;;128.30;70.77;;;;;;;4.44;78.07;99716.56;4277450;81;20992;-82
2021/10/28 21:22:29;;;;;;;132.65;69.25;;;;;;;4.29;78.22;99712.96;4274997;82;21026;-83
2021/10/28 21:28:31;;;;;;;122.55;64.65;;;;;;;4.07;78.34;99711.13;4276831;81;20992;-83
2021/10/28 21:34:32;;;;;;;114.32;60.88;;;;;;;4.01;78.30;99698.85;4288454;81;20973;-82
2021/10/28 21:40:34;;;;;;;113.45;60.52;;;;;;;3.80;78.28;99697.84;4294296;82;21033;-82
2021/10/28 21:46:37;;;;;;;113.12;59.98;;;;;;;3.72;79.28;99693.19;4216875;82;21060;-82
2021/10/28 21:52:43;;;;;;;114.75;61.75;;;;;;;3.74;79.27;99686.92;4258474;81;21024;-82
2021/10/28 22:24:12;;;;;;;97.50;51.48;;;;;;;3.52;79.65;99671.28;4321179;81;21553;-81
2021/10/28 22:30:12;;;;;;;91.30;50.35;;;;;;;3.50;80.33;99665.37;4330314;81;21009;-82
2021/10/28 22:36:22;;;;;;;91.92;51.70;;;;;;;3.48;80.26;99658.92;4213239;82;22292;-83
2021/10/28 22:42:28;;;;;;;99.85;55.98;;;;;;;3.40;80.08;99664.31;4266059;82;21075;-83
2021/10/28 22:48:31;;;;;;;120.82;61.60;;;;;;;3.31;80.49;99661.55;4236843;82;22177;-82
2021/10/28 22:54:33;;;;;;;107.17;58.28;;;;;;;3.44;80.50;99655.80;4320901;81;21048;-82
2021/10/28 23:26:47;;;;;;;97.08;55.67;;;;;;;3.04;80.83;99636.83;4194469;81;21051;-82
2021/10/28 23:33:03;;;;;;;98.92;53.02;;;;;;;2.92;80.82;99633.91;4341082;81;21044;-83
2021/10/28 23:45:37;;;;;;;;;;;;;;;;;;;;;
2021/10/28 23:51:49;;;;;;;94.10;52.33;;;;;;;2.81;81.45;99624.98;4230495;82;21047;-82
2021/10/28 23:57:58;;;;;;;93.67;49.27;;;;;;;2.78;81.59;99629.66;4264629;82;21556;-82
